sensor_id;sensor_type;location;lat;lon;timestamp;pressure;altitude;pressure_sealevel;temperature;humidity
34243;BME280;20504;43.214;27.920;2023-02-03T00:00:25;97612.91;;;5.28;100.00
34243;BME280;20504;43.214;27.920;2023-02-03T00:02:53;97633.75;;;5.10;100.00
34243;BME280;20504;43.214;27.920;2023-02-03T00:05:19;97539.59;;;5.54;100.00
34243;BME280;20504;43.214;27.920;2023-02-03T00:07:45;97576.00;;;5.48;100.00
34243;BME280;20504;43.214;27.920;2023-02-03T00:10:11;97642.31;;;5.02;100.00
34243;BME280;20504;43.214;27.920;2023-02-03T00:12:36;97662.03;;;4.97;100.00
34243;BME280;20504;43.214;27.920;2023-02-03T00:15:02;97650.56;;;4.98;100.00
34243;BME280;20504;43.214;27.920;2023-02-03T00:17:28;97605.78;;;4.90;100.00
34243;BME280;20504;43.214;27.920;2023-02-03T00:19:53;97612.00;;;4.98;100.00
34243;BME280;20504;43.214;27.920;2023-02-03T00:22:19;97594.19;;;4.92;100.00
34243;BME280;20504;43.214;27.920;2023-02-03T00:24:44;97538.47;;;4.98;100.00
34243;BME280;20504;43.214;27.920;2023-02-03T00:27:10;97541.28;;;5.06;100.00
34243;BME280;20504;43.214;27.920;2023-02-03T00:29:35;97549.53;;;5.02;100.00
34243;BME280;20504;43.214;27.920;2023-02-03T00:32:01;97529.50;;;4.91;100.00
34243;BME280;20504;43.214;27.920;2023-02-03T00:34:28;97544.97;;;4.94;100.00
34243;BME280;20504;43.214;27.920;2023-02-03T00:36:54;97574.28;;;4.90;100.00
34243;BME280;20504;43.214;27.920;2023-02-03T00:39:19;97568.47;;;4.86;100.00
34243;BME280;20504;43.214;27.920;2023-02-03T00:41:45;97574.69;;;4.85;100.00
34243;BME280;20504;43.214;27.920;2023-02-03T00:44:10;97534.72;;;4.81;100.00
34243;BME280;20504;43.214;27.920;2023-02-03T00:46:36;97555.47;;;4.84;100.00
34243;BME280;20504;43.214;27.920;2023-02-03T00:49:02;97549.13;;;4.87;100.00
34243;BME280;20504;43.214;27.920;2023-02-03T00:51:28;97545.22;;;4.81;100.00
34243;BME280;20504;43.214;27.920;2023-02-03T00:53:53;97521.34;;;4.94;100.00
34243;BME280;20504;43.214;27.920;2023-02-03T00:56:19;97523.13;;;4.94;100.00
34243;BME280;20504;43.214;27.920;2023-02-03T00:58:44;97548.66;;;4.82;100.00
34243;BME280;20504;43.214;27.920;2023-02-03T01:01:10;97559.72;;;4.76;100.00
34243;BME280;20504;43.214;27.920;2023-02-03T01:03:36;97593.72;;;4.77;100.00
34243;BME280;20504;43.214;27.920;2023-02-03T01:06:28;97583.47;;;4.74;100.00
34243;BME280;20504;43.214;27.920;2023-02-03T01:08:54;97576.44;;;4.75;100.00
34243;BME280;20504;43.214;27.920;2023-02-03T01:11:25;97558.97;;;4.64;100.00
34243;BME280;20504;43.214;27.920;2023-02-03T01:13:53;97571.06;;;4.76;100.00
34243;BME280;20504;43.214;27.920;2023-02-03T01:16:21;97550.59;;;4.80;100.00
34243;BME280;20504;43.214;27.920;2023-02-03T01:18:47;97548.25;;;4.77;100.00
34243;BME280;20504;43.214;27.920;2023-02-03T01:21:20;97564.69;;;4.69;100.00
34243;BME280;20504;43.214;27.920;2023-02-03T01:23:46;97543.13;;;4.75;100.00
34243;BME280;20504;43.214;27.920;2023-02-03T01:26:14;97429.69;;;5.10;100.00
34243;BME280;20504;43.214;27.920;2023-02-03T01:28:40;97508.59;;;4.80;100.00
34243;BME280;20504;43.214;27.920;2023-02-03T01:31:14;97548.38;;;4.66;100.00
34243;BME280;20504;43.214;27.920;2023-02-03T01:33:40;97488.84;;;4.76;100.00
34243;BME280;20504;43.214;27.920;2023-02-03T01:36:07;97455.97;;;4.91;100.00
34243;BME280;20504;43.214;27.920;2023-02-03T01:38:33;97464.13;;;4.88;100.00
34243;BME280;20504;43.214;27.920;2023-02-03T01:40:59;97476.25;;;4.79;100.00
34243;BME280;20504;43.214;27.920;2023-02-03T01:43:45;97485.75;;;4.61;100.00
34243;BME280;20504;43.214;27.920;2023-02-03T01:48:52;97474.72;;;4.57;100.00
34243;BME280;20504;43.214;27.920;2023-02-03T01:51:19;97476.22;;;4.60;100.00
34243;BME280;20504;43.214;27.920;2023-02-03T01:53:46;97431.47;;;4.62;100.00
34243;BME280;20504;43.214;27.920;2023-02-03T01:56:12;97458.56;;;4.52;100.00
34243;BME280;20504;43.214;27.920;2023-02-03T01:58:39;97485.06;;;4.59;100.00
34243;BME280;20504;43.214;27.920;2023-02-03T02:01:05;97506.69;;;4.32;100.00
34243;BME280;20504;43.214;27.920;2023-02-03T02:03:41;97538.03;;;4.34;100.00
34243;BME280;20504;43.214;27.920;2023-02-03T02:06:10;97444.22;;;4.76;100.00
34243;BME280;20504;43.214;27.920;2023-02-03T02:08:37;97507.31;;;4.55;100.00
34243;BME280;20504;43.214;27.920;2023-02-03T02:11:05;97516.00;;;4.55;100.00
34243;BME280;20504;43.214;27.920;2023-02-03T02:13:33;97507.03;;;4.58;100.00
34243;BME280;20504;43.214;27.920;2023-02-03T02:16:08;97504.97;;;4.62;100.00
34243;BME280;20504;43.214;27.920;2023-02-03T02:21:23;97528.31;;;4.55;100.00
34243;BME280;20504;43.214;27.920;2023-02-03T02:29:30;97536.03;;;4.47;100.00
34243;BME280;20504;43.214;27.920;2023-02-03T02:42:45;97508.97;;;4.46;100.00
34243;BME280;20504;43.214;27.920;2023-02-03T02:45:26;97525.53;;;4.47;100.00
34243;BME280;20504;43.214;27.920;2023-02-03T02:48:19;97492.41;;;4.55;100.00
34243;BME280;20504;43.214;27.920;2023-02-03T02:50:48;97509.25;;;4.53;100.00
34243;BME280;20504;43.214;27.920;2023-02-03T02:53:19;97484.81;;;4.62;100.00
34243;BME280;20504;43.214;27.920;2023-02-03T02:55:45;97520.72;;;4.62;100.00
34243;BME280;20504;43.214;27.920;2023-02-03T02:58:14;97531.25;;;4.71;100.00
34243;BME280;20504;43.214;27.920;2023-02-03T03:00:42;97567.31;;;4.69;100.00
34243;BME280;20504;43.214;27.920;2023-02-03T03:03:18;97452.94;;;5.25;100.00
34243;BME280;20504;43.214;27.920;2023-02-03T03:05:58;97447.78;;;5.42;100.00
34243;BME280;20504;43.214;27.920;2023-02-03T03:08:35;97489.69;;;5.44;100.00
34243;BME280;20504;43.214;27.920;2023-02-03T03:11:03;97491.19;;;5.46;100.00
34243;BME280;20504;43.214;27.920;2023-02-03T03:13:33;97506.66;;;5.78;100.00
34243;BME280;20504;43.214;27.920;2023-02-03T03:16:02;97549.66;;;5.87;100.00
34243;BME280;20504;43.214;27.920;2023-02-03T03:18:43;97591.88;;;5.86;100.00
34243;BME280;20504;43.214;27.920;2023-02-03T03:21:15;97641.03;;;5.85;100.00
34243;BME280;20504;43.214;27.920;2023-02-03T03:23:44;97665.44;;;5.97;100.00
34243;BME280;20504;43.214;27.920;2023-02-03T03:28:50;97785.81;;;5.84;100.00
34243;BME280;20504;43.214;27.920;2023-02-03T03:31:18;97754.41;;;5.92;100.00
34243;BME280;20504;43.214;27.920;2023-02-03T03:33:45;97800.75;;;5.83;100.00
34243;BME280;20504;43.214;27.920;2023-02-03T03:36:23;97880.38;;;5.55;100.00
34243;BME280;20504;43.214;27.920;2023-02-03T03:44:31;97953.97;;;5.34;100.00
34243;BME280;20504;43.214;27.920;2023-02-03T03:47:38;97913.34;;;5.59;100.00
34243;BME280;20504;43.214;27.920;2023-02-03T03:50:10;97897.94;;;5.85;100.00
34243;BME280;20504;43.214;27.920;2023-02-03T03:52:36;97984.56;;;5.76;100.00
34243;BME280;20504;43.214;27.920;2023-02-03T03:55:07;98041.31;;;5.79;100.00
34243;BME280;20504;43.214;27.920;2023-02-03T03:58:06;98102.19;;;5.74;100.00
34243;BME280;20504;43.214;27.920;2023-02-03T04:00:35;98141.19;;;5.69;100.00
34243;BME280;20504;43.214;27.920;2023-02-03T04:03:22;98157.28;;;5.76;100.00
34243;BME280;20504;43.214;27.920;2023-02-03T04:05:48;98173.03;;;5.87;100.00
34243;BME280;20504;43.214;27.920;2023-02-03T04:08:14;98221.13;;;5.78;100.00
34243;BME280;20504;43.214;27.920;2023-02-03T04:10:41;98206.59;;;5.95;100.00
34243;BME280;20504;43.214;27.920;2023-02-03T04:13:08;98293.19;;;5.75;100.00
34243;BME280;20504;43.214;27.920;2023-02-03T04:15:35;98345.34;;;5.37;100.00
34243;BME280;20504;43.214;27.920;2023-02-03T04:18:01;98380.97;;;5.52;100.00
34243;BME280;20504;43.214;27.920;2023-02-03T04:20:27;98369.59;;;5.52;100.00
34243;BME280;20504;43.214;27.920;2023-02-03T04:22:53;98411.16;;;5.35;100.00
34243;BME280;20504;43.214;27.920;2023-02-03T04:25:19;98387.41;;;5.37;100.00
34243;BME280;20504;43.214;27.920;2023-02-03T04:27:44;98404.97;;;5.25;100.00
34243;BME280;20504;43.214;27.920;2023-02-03T04:30:10;98423.19;;;5.04;100.00
34243;BME280;20504;43.214;27.920;2023-02-03T04:32:36;98405.34;;;4.97;100.00
34243;BME280;20504;43.214;27.920;2023-02-03T04:35:02;98389.47;;;4.98;100.00
34243;BME280;20504;43.214;27.920;2023-02-03T04:37:29;98404.97;;;4.90;100.00
34243;BME280;20504;43.214;27.920;2023-02-03T04:39:55;98342.31;;;4.97;100.00
34243;BME280;20504;43.214;27.920;2023-02-03T04:42:21;98236.41;;;5.18;100.00
34243;BME280;20504;43.214;27.920;2023-02-03T04:44:47;98140.56;;;5.45;100.00
34243;BME280;20504;43.214;27.920;2023-02-03T04:47:13;98091.44;;;5.45;100.00
34243;BME280;20504;43.214;27.920;2023-02-03T04:49:38;98045.16;;;5.54;100.00
34243;BME280;20504;43.214;27.920;2023-02-03T04:52:04;98066.75;;;5.58;100.00
34243;BME280;20504;43.214;27.920;2023-02-03T04:54:30;98106.25;;;5.46;100.00
34243;BME280;20504;43.214;27.920;2023-02-03T04:56:55;98158.25;;;5.32;100.00
34243;BME280;20504;43.214;27.920;2023-02-03T04:59:21;98164.66;;;5.50;100.00
34243;BME280;20504;43.214;27.920;2023-02-03T05:01:46;98235.31;;;5.32;100.00
34243;BME280;20504;43.214;27.920;2023-02-03T05:04:12;98284.91;;;5.26;100.00
34243;BME280;20504;43.214;27.920;2023-02-03T05:06:37;98324.53;;;5.11;100.00
34243;BME280;20504;43.214;27.920;2023-02-03T05:09:03;98337.28;;;4.94;100.00
34243;BME280;20504;43.214;27.920;2023-02-03T05:11:28;98345.75;;;4.86;100.00
34243;BME280;20504;43.214;27.920;2023-02-03T05:13:54;98359.34;;;4.80;100.00
34243;BME280;20504;43.214;27.920;2023-02-03T05:16:20;98386.06;;;4.26;100.00
34243;BME280;20504;43.214;27.920;2023-02-03T05:18:45;98375.19;;;4.19;100.00
34243;BME280;20504;43.214;27.920;2023-02-03T05:21:10;98322.78;;;4.31;100.00
34243;BME280;20504;43.214;27.920;2023-02-03T05:23:36;98306.16;;;4.19;100.00
34243;BME280;20504;43.214;27.920;2023-02-03T05:26:01;98301.28;;;3.78;100.00
34243;BME280;20504;43.214;27.920;2023-02-03T05:28:27;98252.78;;;4.07;100.00
34243;BME280;20504;43.214;27.920;2023-02-03T05:30:52;98215.50;;;4.15;100.00
34243;BME280;20504;43.214;27.920;2023-02-03T05:33:18;98210.81;;;4.07;100.00
34243;BME280;20504;43.214;27.920;2023-02-03T05:35:43;98191.13;;;4.02;100.00
34243;BME280;20504;43.214;27.920;2023-02-03T05:38:09;98138.97;;;4.10;100.00
34243;BME280;20504;43.214;27.920;2023-02-03T05:40:34;98112.25;;;4.16;100.00
34243;BME280;20504;43.214;27.920;2023-02-03T05:43:19;98111.53;;;4.14;100.00
34243;BME280;20504;43.214;27.920;2023-02-03T05:45:44;98059.56;;;4.30;100.00
34243;BME280;20504;43.214;27.920;2023-02-03T05:48:10;98077.69;;;4.22;100.00
34243;BME280;20504;43.214;27.920;2023-02-03T05:50:36;98034.50;;;4.37;100.00
34243;BME280;20504;43.214;27.920;2023-02-03T05:53:03;98061.00;;;4.34;100.00
34243;BME280;20504;43.214;27.920;2023-02-03T05:55:30;98051.78;;;4.40;100.00
34243;BME280;20504;43.214;27.920;2023-02-03T05:57:57;98050.38;;;4.36;100.00
34243;BME280;20504;43.214;27.920;2023-02-03T06:00:24;98044.16;;;4.37;100.00
34243;BME280;20504;43.214;27.920;2023-02-03T06:02:54;98014.69;;;4.44;100.00
34243;BME280;20504;43.214;27.920;2023-02-03T06:05:21;97993.69;;;4.44;100.00
34243;BME280;20504;43.214;27.920;2023-02-03T06:07:47;97972.34;;;4.49;100.00
34243;BME280;20504;43.214;27.920;2023-02-03T06:10:13;97926.47;;;4.64;100.00
34243;BME280;20504;43.214;27.920;2023-02-03T06:12:39;97930.88;;;4.64;100.00
34243;BME280;20504;43.214;27.920;2023-02-03T06:15:05;97956.94;;;4.55;100.00
34243;BME280;20504;43.214;27.920;2023-02-03T06:17:31;97939.13;;;4.70;100.00
34243;BME280;20504;43.214;27.920;2023-02-03T06:19:56;97916.63;;;4.89;100.00
34243;BME280;20504;43.214;27.920;2023-02-03T06:22:22;97958.66;;;4.77;100.00
34243;BME280;20504;43.214;27.920;2023-02-03T06:24:47;97936.66;;;4.90;100.00
34243;BME280;20504;43.214;27.920;2023-02-03T06:27:13;97941.75;;;5.02;100.00
34243;BME280;20504;43.214;27.920;2023-02-03T06:29:40;97930.16;;;5.26;100.00
34243;BME280;20504;43.214;27.920;2023-02-03T06:32:06;97982.97;;;5.23;100.00
34243;BME280;20504;43.214;27.920;2023-02-03T06:34:33;97997.25;;;5.30;100.00
34243;BME280;20504;43.214;27.920;2023-02-03T06:36:58;97996.72;;;5.36;100.00
34243;BME280;20504;43.214;27.920;2023-02-03T06:39:24;98042.84;;;5.40;100.00
34243;BME280;20504;43.214;27.920;2023-02-03T06:41:49;98065.91;;;5.57;100.00
34243;BME280;20504;43.214;27.920;2023-02-03T06:44:20;98104.31;;;5.60;100.00
34243;BME280;20504;43.214;27.920;2023-02-03T06:46:45;98083.41;;;5.79;100.00
34243;BME280;20504;43.214;27.920;2023-02-03T06:49:11;98120.94;;;5.81;100.00
34243;BME280;20504;43.214;27.920;2023-02-03T06:51:36;98176.84;;;5.62;100.00
34243;BME280;20504;43.214;27.920;2023-02-03T06:54:02;98201.34;;;5.95;100.00
34243;BME280;20504;43.214;27.920;2023-02-03T06:56:30;98252.91;;;5.97;100.00
34243;BME280;20504;43.214;27.920;2023-02-03T06:58:55;98249.09;;;6.22;100.00
34243;BME280;20504;43.214;27.920;2023-02-03T07:01:23;98324.84;;;6.07;100.00
34243;BME280;20504;43.214;27.920;2023-02-03T07:03:50;98347.44;;;6.21;100.00
34243;BME280;20504;43.214;27.920;2023-02-03T07:06:15;98384.59;;;6.28;100.00
34243;BME280;20504;43.214;27.920;2023-02-03T07:08:41;98389.72;;;6.41;100.00
34243;BME280;20504;43.214;27.920;2023-02-03T07:11:07;98458.81;;;6.33;100.00
34243;BME280;20504;43.214;27.920;2023-02-03T07:13:32;98499.84;;;6.35;100.00
34243;BME280;20504;43.214;27.920;2023-02-03T07:15:58;98477.44;;;6.52;100.00
34243;BME280;20504;43.214;27.920;2023-02-03T07:18:24;98469.56;;;6.84;100.00
34243;BME280;20504;43.214;27.920;2023-02-03T07:20:51;98560.94;;;6.84;100.00
34243;BME280;20504;43.214;27.920;2023-02-03T07:23:17;98559.97;;;6.96;100.00
34243;BME280;20504;43.214;27.920;2023-02-03T07:25:42;98626.69;;;6.96;100.00
34243;BME280;20504;43.214;27.920;2023-02-03T07:28:08;98724.78;;;6.78;100.00
34243;BME280;20504;43.214;27.920;2023-02-03T07:30:33;98734.84;;;6.84;100.00
34243;BME280;20504;43.214;27.920;2023-02-03T07:32:59;98747.16;;;6.83;100.00
34243;BME280;20504;43.214;27.920;2023-02-03T07:35:24;98724.06;;;6.98;100.00
34243;BME280;20504;43.214;27.920;2023-02-03T07:37:51;98766.81;;;7.02;100.00
34243;BME280;20504;43.214;27.920;2023-02-03T07:40:17;98756.53;;;7.21;100.00
34243;BME280;20504;43.214;27.920;2023-02-03T07:42:45;98748.59;;;7.43;100.00
34243;BME280;20504;43.214;27.920;2023-02-03T07:45:12;98785.06;;;7.27;100.00
34243;BME280;20504;43.214;27.920;2023-02-03T07:47:39;98820.88;;;7.41;100.00
34243;BME280;20504;43.214;27.920;2023-02-03T07:50:05;98848.00;;;7.32;100.00
34243;BME280;20504;43.214;27.920;2023-02-03T07:52:30;98849.44;;;7.47;100.00
34243;BME280;20504;43.214;27.920;2023-02-03T07:54:56;98855.88;;;7.76;100.00
34243;BME280;20504;43.214;27.920;2023-02-03T07:57:21;98880.97;;;7.82;100.00
34243;BME280;20504;43.214;27.920;2023-02-03T07:59:47;98910.22;;;7.90;100.00
34243;BME280;20504;43.214;27.920;2023-02-03T08:02:12;98921.84;;;8.10;100.00
34243;BME280;20504;43.214;27.920;2023-02-03T08:04:38;98908.25;;;8.26;100.00
34243;BME280;20504;43.214;27.920;2023-02-03T08:07:04;98992.06;;;8.24;100.00
34243;BME280;20504;43.214;27.920;2023-02-03T08:09:29;98941.53;;;8.71;100.00
34243;BME280;20504;43.214;27.920;2023-02-03T08:11:54;99019.59;;;8.87;100.00
34243;BME280;20504;43.214;27.920;2023-02-03T08:14:20;99097.81;;;8.89;100.00
34243;BME280;20504;43.214;27.920;2023-02-03T08:16:45;99224.31;;;8.49;100.00
34243;BME280;20504;43.214;27.920;2023-02-03T08:19:11;99238.53;;;8.70;100.00
34243;BME280;20504;43.214;27.920;2023-02-03T08:21:37;99238.44;;;8.83;100.00
34243;BME280;20504;43.214;27.920;2023-02-03T08:24:03;99218.38;;;9.03;100.00
34243;BME280;20504;43.214;27.920;2023-02-03T08:26:28;99259.81;;;8.91;100.00
34243;BME280;20504;43.214;27.920;2023-02-03T08:28:54;99304.78;;;8.91;100.00
34243;BME280;20504;43.214;27.920;2023-02-03T08:31:19;99265.50;;;9.31;100.00
34243;BME280;20504;43.214;27.920;2023-02-03T08:33:45;99248.63;;;9.55;100.00
34243;BME280;20504;43.214;27.920;2023-02-03T08:36:10;99349.78;;;9.25;100.00
34243;BME280;20504;43.214;27.920;2023-02-03T08:38:37;99358.59;;;9.36;100.00
34243;BME280;20504;43.214;27.920;2023-02-03T08:41:13;99361.34;;;9.46;100.00
34243;BME280;20504;43.214;27.920;2023-02-03T08:43:39;99331.63;;;9.65;100.00
34243;BME280;20504;43.214;27.920;2023-02-03T08:46:07;99267.47;;;10.27;100.00
34243;BME280;20504;43.214;27.920;2023-02-03T08:48:32;99306.94;;;10.62;100.00
34243;BME280;20504;43.214;27.920;2023-02-03T08:50:58;99356.13;;;10.76;100.00
34243;BME280;20504;43.214;27.920;2023-02-03T08:53:24;99384.38;;;11.18;100.00
34243;BME280;20504;43.214;27.920;2023-02-03T08:55:51;99584.34;;;10.41;100.00
34243;BME280;20504;43.214;27.920;2023-02-03T08:58:17;99646.84;;;10.21;100.00
34243;BME280;20504;43.214;27.920;2023-02-03T09:00:42;99599.06;;;10.56;100.00
34243;BME280;20504;43.214;27.920;2023-02-03T09:03:08;99488.88;;;11.06;100.00
34243;BME280;20504;43.214;27.920;2023-02-03T09:05:34;99538.03;;;11.53;100.00
34243;BME280;20504;43.214;27.920;2023-02-03T09:08:00;99559.16;;;11.76;100.00
34243;BME280;20504;43.214;27.920;2023-02-03T09:10:25;99586.13;;;11.92;100.00
34243;BME280;20504;43.214;27.920;2023-02-03T09:12:51;99693.78;;;11.64;100.00
34243;BME280;20504;43.214;27.920;2023-02-03T09:15:16;99674.59;;;12.04;100.00
34243;BME280;20504;43.214;27.920;2023-02-03T09:17:42;99718.00;;;11.93;100.00
34243;BME280;20504;43.214;27.920;2023-02-03T09:20:08;99784.44;;;11.71;100.00
34243;BME280;20504;43.214;27.920;2023-02-03T09:22:33;99773.34;;;11.77;100.00
34243;BME280;20504;43.214;27.920;2023-02-03T09:24:59;99712.44;;;11.96;100.00
34243;BME280;20504;43.214;27.920;2023-02-03T09:27:25;99778.72;;;12.09;100.00
34243;BME280;20504;43.214;27.920;2023-02-03T09:29:51;99812.38;;;12.20;100.00
34243;BME280;20504;43.214;27.920;2023-02-03T09:32:16;99823.44;;;12.36;100.00
34243;BME280;20504;43.214;27.920;2023-02-03T09:34:42;99800.75;;;12.53;100.00
34243;BME280;20504;43.214;27.920;2023-02-03T09:37:07;99832.03;;;12.81;100.00
34243;BME280;20504;43.214;27.920;2023-02-03T09:39:33;99843.41;;;13.04;100.00
34243;BME280;20504;43.214;27.920;2023-02-03T09:45:09;99910.56;;;12.76;100.00
34243;BME280;20504;43.214;27.920;2023-02-03T09:47:39;99991.06;;;12.34;100.00
34243;BME280;20504;43.214;27.920;2023-02-03T09:50:19;99944.81;;;12.69;100.00
34243;BME280;20504;43.214;27.920;2023-02-03T09:52:46;99901.63;;;12.97;100.00
34243;BME280;20504;43.214;27.920;2023-02-03T09:58:03;99900.06;;;13.37;100.00
34243;BME280;20504;43.214;27.920;2023-02-03T10:00:35;99856.41;;;13.89;100.00
34243;BME280;20504;43.214;27.920;2023-02-03T10:06:00;99987.75;;;13.70;100.00
34243;BME280;20504;43.214;27.920;2023-02-03T10:14:36;100164.63;;;13.69;100.00
34243;BME280;20504;43.214;27.920;2023-02-03T10:17:08;100256.63;;;13.19;100.00
34243;BME280;20504;43.214;27.920;2023-02-03T10:20:10;100257.31;;;12.98;100.00
34243;BME280;20504;43.214;27.920;2023-02-03T10:22:47;100231.19;;;12.92;100.00
34243;BME280;20504;43.214;27.920;2023-02-03T10:25:18;100229.41;;;13.04;100.00
34243;BME280;20504;43.214;27.920;2023-02-03T10:27:51;100184.31;;;13.46;100.00
34243;BME280;20504;43.214;27.920;2023-02-03T10:30:34;100165.47;;;13.70;100.00
34243;BME280;20504;43.214;27.920;2023-02-03T10:33:11;100197.44;;;13.70;100.00
34243;BME280;20504;43.214;27.920;2023-02-03T10:41:14;100115.03;;;14.71;100.00
34243;BME280;20504;43.214;27.920;2023-02-03T10:43:40;100167.84;;;14.25;100.00
34243;BME280;20504;43.214;27.920;2023-02-03T10:46:32;100074.06;;;14.91;100.00
34243;BME280;20504;43.214;27.920;2023-02-03T10:48:59;100124.88;;;14.49;100.00
34243;BME280;20504;43.214;27.920;2023-02-03T10:51:26;100106.69;;;15.04;100.00
34243;BME280;20504;43.214;27.920;2023-02-03T10:53:56;100078.03;;;15.35;100.00
34243;BME280;20504;43.214;27.920;2023-02-03T10:56:35;100087.75;;;15.36;100.00
34243;BME280;20504;43.214;27.920;2023-02-03T10:59:02;100122.75;;;15.33;100.00
34243;BME280;20504;43.214;27.920;2023-02-03T11:04:04;100229.53;;;14.74;100.00
34243;BME280;20504;43.214;27.920;2023-02-03T11:06:31;100179.69;;;14.84;100.00
34243;BME280;20504;43.214;27.920;2023-02-03T11:08:58;100205.38;;;14.75;100.00
34243;BME280;20504;43.214;27.920;2023-02-03T11:11:28;100163.53;;;14.85;100.00
34243;BME280;20504;43.214;27.920;2023-02-03T11:16:32;100219.19;;;14.60;100.00
34243;BME280;20504;43.214;27.920;2023-02-03T11:19:00;100245.88;;;14.39;100.00
34243;BME280;20504;43.214;27.920;2023-02-03T11:29:03;100436.72;;;13.20;100.00
34243;BME280;20504;43.214;27.920;2023-02-03T11:31:33;100318.03;;;13.40;100.00
34243;BME280;20504;43.214;27.920;2023-02-03T11:34:06;100212.53;;;14.12;100.00
34243;BME280;20504;43.214;27.920;2023-02-03T11:36:39;100232.78;;;14.36;100.00
34243;BME280;20504;43.214;27.920;2023-02-03T11:41:41;100217.34;;;15.11;100.00
34243;BME280;20504;43.214;27.920;2023-02-03T11:44:25;100313.19;;;14.63;100.00
34243;BME280;20504;43.214;27.920;2023-02-03T11:47:19;100387.72;;;13.89;100.00
34243;BME280;20504;43.214;27.920;2023-02-03T11:50:18;100348.25;;;13.83;100.00
34243;BME280;20504;43.214;27.920;2023-02-03T11:55:44;100270.41;;;14.33;100.00
34243;BME280;20504;43.214;27.920;2023-02-03T12:25:42;100467.34;;;14.05;100.00
34243;BME280;20504;43.214;27.920;2023-02-03T12:31:15;100456.69;;;13.72;100.00
34243;BME280;20504;43.214;27.920;2023-02-03T12:33:50;100486.22;;;13.46;100.00
34243;BME280;20504;43.214;27.920;2023-02-03T12:36:26;100516.22;;;13.13;100.00
34243;BME280;20504;43.214;27.920;2023-02-03T12:47:36;100506.94;;;12.47;100.00
34243;BME280;20504;43.214;27.920;2023-02-03T12:56:00;100475.25;;;11.95;100.00
34243;BME280;20504;43.214;27.920;2023-02-03T12:58:39;100430.72;;;11.86;100.00
34243;BME280;20504;43.214;27.920;2023-02-03T13:01:22;100430.28;;;11.66;100.00
34243;BME280;20504;43.214;27.920;2023-02-03T13:07:07;100380.88;;;11.64;100.00
34243;BME280;20504;43.214;27.920;2023-02-03T13:09:46;100369.84;;;11.57;100.00
34243;BME280;20504;43.214;27.920;2023-02-03T13:12:30;100341.28;;;11.48;100.00
34243;BME280;20504;43.214;27.920;2023-02-03T13:20:21;100238.25;;;11.16;100.00
34243;BME280;20504;43.214;27.920;2023-02-03T13:22:47;100202.66;;;11.19;100.00
34243;BME280;20504;43.214;27.920;2023-02-03T13:28:26;100175.91;;;11.22;100.00
34243;BME280;20504;43.214;27.920;2023-02-03T13:31:10;100168.94;;;11.32;100.00
34243;BME280;20504;43.214;27.920;2023-02-03T13:39:07;100136.91;;;11.94;100.00
34243;BME280;20504;43.214;27.920;2023-02-03T13:41:44;100179.19;;;11.73;100.00
34243;BME280;20504;43.214;27.920;2023-02-03T13:44:15;100120.97;;;12.05;100.00
34243;BME280;20504;43.214;27.920;2023-02-03T13:46:46;100128.59;;;12.10;100.00
34243;BME280;20504;43.214;27.920;2023-02-03T13:49:33;100190.19;;;12.04;100.00
34243;BME280;20504;43.214;27.920;2023-02-03T13:51:59;100201.28;;;11.98;100.00
34243;BME280;20504;43.214;27.920;2023-02-03T13:54:37;100206.47;;;11.99;100.00
34243;BME280;20504;43.214;27.920;2023-02-03T13:57:28;100213.44;;;12.13;100.00
34243;BME280;20504;43.214;27.920;2023-02-03T13:59:58;100263.50;;;11.95;100.00
34243;BME280;20504;43.214;27.920;2023-02-03T14:04:58;100278.75;;;11.68;100.00
34243;BME280;20504;43.214;27.920;2023-02-03T14:07:34;100297.84;;;11.86;100.00
34243;BME280;20504;43.214;27.920;2023-02-03T14:12:38;100317.22;;;11.75;100.00
34243;BME280;20504;43.214;27.920;2023-02-03T14:15:27;100337.97;;;11.57;100.00
34243;BME280;20504;43.214;27.920;2023-02-03T14:18:03;100316.97;;;11.54;100.00
34243;BME280;20504;43.214;27.920;2023-02-03T14:20:37;100214.94;;;12.28;100.00
34243;BME280;20504;43.214;27.920;2023-02-03T14:25:30;100295.78;;;11.65;100.00
34243;BME280;20504;43.214;27.920;2023-02-03T14:28:04;100295.19;;;11.49;100.00
34243;BME280;20504;43.214;27.920;2023-02-03T14:30:30;100225.56;;;11.93;100.00
34243;BME280;20504;43.214;27.920;2023-02-03T14:32:57;100240.59;;;11.81;100.00
34243;BME280;20504;43.214;27.920;2023-02-03T14:35:39;100256.56;;;11.32;100.00
34243;BME280;20504;43.214;27.920;2023-02-03T14:38:09;100282.59;;;10.51;100.00
34243;BME280;20504;43.214;27.920;2023-02-03T14:40:47;100183.88;;;10.35;100.00
34243;BME280;20504;43.214;27.920;2023-02-03T14:45:58;99956.81;;;9.84;100.00
34243;BME280;20504;43.214;27.920;2023-02-03T14:51:22;99758.13;;;9.49;100.00
34243;BME280;20504;43.214;27.920;2023-02-03T14:59:49;99170.63;;;9.70;100.00
34243;BME280;20504;43.214;27.920;2023-02-03T15:02:26;99097.09;;;9.41;100.00
34243;BME280;20504;43.214;27.920;2023-02-03T15:07:42;98913.97;;;9.99;100.00
34243;BME280;20504;43.214;27.920;2023-02-03T15:10:19;98881.66;;;10.05;100.00
34243;BME280;20504;43.214;27.920;2023-02-03T15:12:50;98782.59;;;10.46;100.00
34243;BME280;20504;43.214;27.920;2023-02-03T15:15:20;98863.78;;;10.47;100.00
34243;BME280;20504;43.214;27.920;2023-02-03T15:17:47;98906.84;;;10.40;100.00
34243;BME280;20504;43.214;27.920;2023-02-03T15:20:38;98940.63;;;10.47;100.00
34243;BME280;20504;43.214;27.920;2023-02-03T15:25:52;98993.25;;;10.61;100.00
34243;BME280;20504;43.214;27.920;2023-02-03T15:28:19;99183.91;;;9.91;100.00
34243;BME280;20504;43.214;27.920;2023-02-03T15:30:47;99305.91;;;9.11;100.00